createdAt,value
2023-04-02T00:04:24.383Z,9.82
2023-04-02T00:07:21.881Z,9.82
2023-04-02T00:09:55.854Z,9.84
2023-04-02T00:12:30.427Z,9.84
2023-04-02T00:15:05.033Z,9.81
2023-04-02T00:17:38.749Z,9.78
2023-04-02T00:20:20.398Z,9.77
2023-04-02T00:22:53.942Z,9.77
2023-04-02T00:25:30.190Z,9.76
2023-04-02T00:28:04.670Z,9.78
2023-04-02T00:30:38.872Z,9.82
2023-04-02T00:33:19.985Z,9.84
2023-04-02T00:35:54.922Z,9.85
2023-04-02T00:38:31.994Z,9.83
2023-04-02T00:41:09.061Z,9.80
2023-04-02T00:43:51.276Z,9.77
2023-04-02T00:46:31.344Z,9.78
2023-04-02T00:49:11.663Z,9.80
2023-04-02T00:51:51.921Z,9.79
2023-04-02T00:54:29.704Z,9.78
2023-04-02T00:57:04.698Z,9.75
2023-04-02T00:59:45.851Z,9.72
2023-04-02T01:02:29.127Z,9.66
2023-04-02T01:05:04.600Z,9.58
2023-04-02T01:08:01.462Z,9.54
2023-04-02T01:11:02.458Z,9.53
2023-04-02T01:13:43.711Z,9.50
2023-04-02T01:16:24.976Z,9.45
2023-04-02T01:19:07.263Z,9.40
2023-04-02T01:21:53.254Z,9.36
2023-04-02T01:24:32.158Z,9.29
2023-04-02T01:27:08.607Z,9.23
2023-04-02T01:29:47.023Z,9.21
2023-04-02T01:32:24.819Z,9.23
2023-04-02T01:34:59.905Z,9.26
2023-04-02T01:37:40.612Z,9.30
2023-04-02T01:40:30.285Z,9.30
2023-04-02T01:43:15.317Z,9.32
2023-04-02T01:45:49.230Z,9.31
2023-04-02T01:48:27.744Z,9.29
2023-04-02T01:51:04.328Z,9.29
2023-04-02T01:53:38.180Z,9.26
2023-04-02T01:56:12.053Z,9.25
2023-04-02T01:58:49.718Z,9.24
2023-04-02T02:01:28.881Z,9.23
2023-04-02T02:04:13.891Z,9.22
2023-04-02T02:06:49.072Z,9.21
2023-04-02T02:09:27.376Z,9.17
2023-04-02T02:12:03.727Z,9.16
2023-04-02T02:14:37.979Z,9.15
2023-04-02T02:17:16.409Z,9.13
2023-04-02T02:19:55.028Z,9.09
2023-04-02T02:22:32.445Z,9.11
2023-04-02T02:25:08.420Z,9.10
2023-04-02T02:28:01.575Z,9.04
2023-04-02T02:30:40.123Z,9.01
2023-04-02T02:33:22.970Z,9.04
2023-04-02T02:36:02.313Z,9.06
2023-04-02T02:38:54.418Z,9.08
2023-04-02T02:41:39.443Z,9.10
2023-04-02T02:44:20.466Z,9.10
2023-04-02T02:47:02.702Z,9.10
2023-04-02T02:49:39.698Z,9.09
2023-04-02T02:52:21.733Z,9.05
2023-04-02T02:55:14.719Z,8.99
2023-04-02T02:58:11.326Z,8.95
2023-04-02T03:00:54.136Z,8.95
2023-04-02T03:03:32.919Z,8.97
2023-04-02T03:06:11.111Z,8.98
2023-04-02T03:08:50.646Z,8.98
2023-04-02T03:11:35.609Z,8.95
2023-04-02T03:14:19.561Z,8.93
2023-04-02T03:17:00.615Z,8.89
2023-04-02T03:19:52.369Z,8.86
2023-04-02T03:22:32.462Z,8.86
2023-04-02T03:25:17.229Z,8.89
2023-04-02T03:27:55.846Z,8.91
2023-04-02T03:30:38.909Z,8.91
2023-04-02T03:33:19.104Z,8.91
2023-04-02T03:35:59.953Z,8.92
2023-04-02T03:38:38.858Z,8.93
2023-04-02T03:41:17.067Z,8.95
2023-04-02T03:43:55.971Z,8.98
2023-04-02T03:46:29.065Z,9.01
2023-04-02T03:49:06.492Z,9.01
2023-04-02T03:51:49.372Z,9.00
2023-04-02T03:54:23.847Z,8.97
2023-04-02T03:56:58.573Z,8.91
2023-04-02T03:59:43.278Z,8.87
2023-04-02T04:02:40.427Z,8.85
2023-04-02T04:05:25.983Z,8.85
2023-04-02T04:08:05.230Z,8.85
2023-04-02T04:10:39.739Z,8.83
2023-04-02T04:13:19.582Z,8.81
2023-04-02T04:16:01.080Z,8.77
2023-04-02T04:18:43.010Z,8.71
2023-04-02T04:21:31.465Z,8.68
2023-04-02T04:24:25.124Z,8.67
2023-04-02T04:27:10.319Z,8.64
2023-04-02T04:29:54.008Z,8.61
2023-04-02T04:32:34.105Z,8.61
2023-04-02T04:35:27.873Z,8.59
2023-04-02T04:38:08.027Z,8.56
2023-04-02T04:40:52.779Z,8.53
2023-04-02T04:43:48.781Z,8.54
2023-04-02T04:46:29.335Z,8.53
2023-04-02T04:49:19.325Z,8.47
2023-04-02T04:51:53.950Z,8.44
2023-04-02T04:54:30.198Z,8.41
2023-04-02T04:57:06.313Z,8.40
2023-04-02T04:59:46.107Z,8.40
2023-04-02T05:02:26.489Z,8.43
2023-04-02T05:05:02.412Z,8.46
2023-04-02T05:07:47.742Z,8.46
2023-04-02T05:10:30.644Z,8.46
2023-04-02T05:13:12.403Z,8.47
2023-04-02T05:15:52.747Z,8.47
2023-04-02T05:18:33.430Z,8.45
2023-04-02T05:21:16.133Z,8.42
2023-04-02T05:23:55.910Z,8.41
2023-04-02T05:26:47.507Z,8.43
2023-04-02T05:29:27.189Z,8.45
2023-04-02T05:32:06.268Z,8.46
2023-04-02T05:34:44.051Z,8.45
2023-04-02T05:37:21.352Z,8.44
2023-04-02T05:39:58.793Z,8.40
2023-04-02T05:42:37.524Z,8.33
2023-04-02T05:45:27.431Z,8.31
2023-04-02T05:48:04.760Z,8.28
2023-04-02T05:50:46.429Z,8.30
2023-04-02T05:53:32.610Z,8.31
2023-04-02T05:56:07.913Z,8.33
2023-04-02T05:58:46.757Z,8.28
2023-04-02T06:01:41.395Z,8.23
2023-04-02T06:04:28.062Z,8.22
2023-04-02T06:07:10.880Z,8.23
2023-04-02T06:09:54.645Z,8.26
2023-04-02T06:12:35.125Z,8.32
2023-04-02T06:15:17.332Z,8.33
2023-04-02T06:18:01.692Z,8.27
2023-04-02T06:20:36.828Z,8.26
2023-04-02T06:23:17.838Z,8.21
2023-04-02T06:25:55.109Z,8.23
2023-04-02T06:28:35.055Z,8.27
2023-04-02T06:31:29.590Z,8.28
2023-04-02T06:34:04.947Z,8.26
2023-04-02T06:36:40.542Z,8.25
2023-04-02T06:39:23.126Z,8.29
2023-04-02T06:42:05.794Z,8.34
2023-04-02T06:44:59.114Z,8.41
2023-04-02T06:48:14.928Z,8.41
2023-04-02T06:50:56.977Z,8.39
2023-04-02T06:53:37.307Z,8.37
2023-04-02T06:56:22.492Z,8.32
2023-04-02T06:59:08.932Z,8.26
2023-04-02T07:01:47.009Z,8.21
2023-04-02T07:04:22.558Z,8.15
2023-04-02T07:06:59.278Z,8.10
2023-04-02T07:09:36.750Z,8.07
2023-04-02T07:12:16.209Z,8.05
2023-04-02T07:14:50.448Z,8.04
2023-04-02T07:17:24.831Z,8.06
2023-04-02T07:19:58.806Z,8.09
2023-04-02T07:22:35.438Z,8.13
2023-04-02T07:25:10.972Z,8.17
2023-04-02T07:28:06.465Z,8.19
2023-04-02T07:30:41.314Z,8.19
2023-04-02T07:33:17.019Z,8.19
2023-04-02T07:35:52.015Z,8.15
2023-04-02T07:38:25.806Z,8.10
2023-04-02T07:40:59.740Z,8.09
2023-04-02T07:43:33.606Z,8.08
2023-04-02T07:46:08.279Z,8.07
2023-04-02T07:48:42.402Z,8.07
2023-04-02T07:51:23.998Z,8.02
2023-04-02T07:53:58.006Z,8.01
2023-04-02T07:56:32.296Z,8.05
2023-04-02T07:59:06.736Z,8.10
2023-04-02T08:01:41.356Z,8.16
2023-04-02T08:04:21.800Z,8.25
2023-04-02T08:06:55.437Z,8.30
2023-04-02T08:09:29.194Z,8.32
2023-04-02T08:12:16.293Z,8.31
2023-04-02T08:14:49.838Z,8.24
2023-04-02T08:17:23.761Z,8.18
2023-04-02T08:20:01.786Z,8.12
2023-04-02T08:22:35.932Z,8.07
2023-04-02T08:25:11.704Z,8.08
2023-04-02T08:27:48.319Z,8.14
2023-04-02T08:30:22.592Z,8.18
2023-04-02T08:32:57.155Z,8.22
2023-04-02T08:35:31.698Z,8.22
2023-04-02T08:38:05.616Z,8.23
2023-04-02T08:40:41.612Z,8.23
2023-04-02T08:43:49.990Z,8.22
2023-04-02T08:46:25.736Z,8.19
2023-04-02T08:49:02.450Z,8.16
2023-04-02T08:51:38.372Z,8.13
2023-04-02T08:54:23.924Z,8.10
2023-04-02T08:57:01.360Z,8.07
2023-04-02T08:59:40.918Z,8.07
2023-04-02T09:02:33.321Z,8.09
2023-04-02T09:05:18.034Z,8.10
2023-04-02T09:07:54.963Z,8.08
2023-04-02T09:10:39.163Z,8.09
2023-04-02T09:13:22.128Z,8.09
2023-04-02T09:16:03.343Z,8.13
2023-04-02T09:18:38.589Z,8.15
2023-04-02T09:21:36.923Z,8.17
2023-04-02T09:24:13.454Z,8.24
2023-04-02T09:26:48.096Z,8.32
2023-04-02T09:29:33.707Z,8.40
2023-04-02T09:32:20.336Z,8.45
2023-04-02T09:35:14.950Z,8.50
2023-04-02T09:38:19.677Z,8.56
2023-04-02T09:41:03.097Z,8.65
2023-04-02T09:43:38.342Z,8.73
2023-04-02T09:46:24.603Z,8.86
2023-04-02T09:49:01.457Z,8.95
2023-04-02T09:51:36.883Z,8.93
2023-04-02T09:54:18.474Z,8.92
2023-04-02T09:57:06.215Z,8.96
2023-04-02T09:59:40.479Z,9.02
2023-04-02T10:02:30.579Z,9.01
2023-04-02T10:05:29.947Z,9.03
2023-04-02T10:08:19.711Z,9.07
2023-04-02T10:10:57.307Z,9.04
2023-04-02T10:13:35.447Z,8.97
2023-04-02T10:16:12.941Z,8.96
2023-04-02T10:18:50.912Z,8.97
2023-04-02T10:21:29.804Z,8.99
2023-04-02T10:24:04.480Z,8.97
2023-04-02T10:26:50.079Z,8.93
2023-04-02T10:29:53.861Z,8.91
2023-04-02T10:32:37.750Z,8.86
2023-04-02T10:35:20.321Z,8.82
2023-04-02T10:38:21.158Z,8.79
2023-04-02T10:41:01.134Z,8.78
2023-04-02T10:43:57.815Z,8.75
2023-04-02T10:46:38.775Z,8.72
2023-04-02T10:49:24.188Z,8.72
2023-04-02T10:52:03.868Z,8.72
2023-04-02T10:54:50.428Z,8.71
2023-04-02T10:57:39.800Z,8.70
2023-04-02T11:00:25.863Z,8.65
2023-04-02T11:03:05.049Z,8.58
2023-04-02T11:05:45.458Z,8.51
2023-04-02T11:08:23.600Z,8.41
2023-04-02T11:11:04.496Z,8.37
2023-04-02T11:13:45.167Z,8.33
2023-04-02T11:16:19.203Z,8.31
2023-04-02T11:19:23.817Z,8.31
2023-04-02T11:22:01.866Z,8.29
2023-04-02T11:24:44.894Z,8.27
2023-04-02T11:27:26.254Z,8.17
2023-04-02T11:30:07.674Z,8.13
2023-04-02T11:32:46.557Z,8.14
2023-04-02T11:35:41.174Z,8.14
2023-04-02T11:38:57.549Z,8.10
2023-04-02T11:42:06.006Z,8.04
2023-04-02T11:44:40.497Z,8.02
2023-04-02T11:47:22.829Z,8.01
2023-04-02T11:50:29.347Z,8.03
2023-04-02T11:53:07.285Z,7.99
2023-04-02T11:55:42.265Z,8.01
2023-04-02T11:58:45.787Z,8.10
2023-04-02T12:01:38.739Z,8.25
2023-04-02T12:04:40.089Z,8.38
2023-04-02T12:07:35.838Z,8.47
2023-04-02T12:10:20.291Z,8.55
2023-04-02T12:12:55.112Z,8.59
2023-04-02T12:15:45.224Z,8.61
2023-04-02T12:18:23.170Z,8.61
2023-04-02T12:20:59.101Z,8.61
2023-04-02T12:23:35.134Z,8.61
2023-04-02T12:26:26.601Z,8.60
2023-04-02T12:29:18.607Z,8.58
2023-04-02T12:31:54.011Z,8.56
2023-04-02T12:34:31.052Z,8.53
2023-04-02T12:37:07.466Z,8.56
2023-04-02T12:39:41.609Z,8.59
2023-04-02T12:42:30.380Z,8.57
2023-04-02T12:45:07.106Z,8.52
2023-04-02T12:47:46.653Z,8.54
2023-04-02T12:50:22.558Z,8.57
2023-04-02T12:53:01.330Z,8.57
2023-04-02T12:55:34.328Z,8.58
2023-04-02T12:58:22.135Z,8.54
2023-04-02T13:01:11.093Z,8.52
2023-04-02T13:04:01.611Z,8.53
2023-04-02T13:06:36.804Z,8.58
2023-04-02T13:09:26.838Z,8.60
2023-04-02T13:12:04.549Z,8.57
2023-04-02T13:14:39.202Z,8.53
2023-04-02T13:17:46.041Z,8.51
2023-04-02T13:20:38.714Z,8.47
2023-04-02T13:23:39.092Z,8.44
2023-04-02T13:26:24.822Z,8.46
2023-04-02T13:29:04.240Z,8.56
2023-04-02T13:31:38.356Z,8.66
2023-04-02T13:34:12.675Z,8.75
2023-04-02T13:36:46.800Z,8.78
2023-04-02T13:39:21.993Z,8.80
2023-04-02T13:42:00.108Z,8.74
2023-04-02T13:44:37.392Z,8.68
2023-04-02T13:47:17.558Z,8.64
2023-04-02T13:49:51.393Z,8.64
2023-04-02T13:52:24.994Z,8.63
2023-04-02T13:55:01.500Z,8.60
2023-04-02T13:57:36.825Z,8.57
2023-04-02T14:00:13.514Z,8.57
2023-04-02T14:02:54.405Z,8.51
2023-04-02T14:05:41.394Z,8.46
2023-04-02T14:08:25.619Z,8.42
2023-04-02T14:11:10.880Z,8.39
2023-04-02T14:14:06.431Z,8.37
2023-04-02T14:16:58.735Z,8.32
2023-04-02T14:19:49.703Z,8.26
2023-04-02T14:22:35.835Z,8.18
2023-04-02T14:25:20.068Z,8.10
2023-04-02T14:28:04.639Z,8.08
2023-04-02T14:30:54.961Z,8.04
2023-04-02T14:33:41.936Z,7.90
2023-04-02T14:36:26.309Z,7.85
2023-04-02T14:39:09.489Z,7.85
2023-04-02T14:41:50.763Z,7.87
2023-04-02T14:44:40.846Z,7.86
2023-04-02T14:47:24.169Z,7.80
2023-04-02T14:50:04.771Z,7.73
2023-04-02T14:52:42.159Z,7.68
2023-04-02T14:55:24.187Z,7.62
2023-04-02T14:58:02.294Z,7.56
2023-04-02T15:00:42.742Z,7.51
2023-04-02T15:03:25.446Z,7.51
2023-04-02T15:06:06.351Z,7.50
2023-04-02T15:08:52.284Z,7.42
2023-04-02T15:11:39.087Z,7.36
2023-04-02T15:14:22.118Z,7.30
2023-04-02T15:16:58.472Z,7.26
2023-04-02T15:19:34.722Z,7.26
2023-04-02T15:22:33.547Z,7.26
2023-04-02T15:25:17.949Z,7.23
2023-04-02T15:28:13.662Z,7.21
2023-04-02T15:30:57.966Z,7.15
2023-04-02T15:33:46.987Z,7.07
2023-04-02T15:36:58.627Z,6.95
2023-04-02T15:39:51.774Z,6.85
2023-04-02T15:42:30.944Z,6.75
2023-04-02T15:45:29.452Z,6.64
2023-04-02T15:48:21.829Z,6.54
2023-04-02T15:51:06.802Z,6.49
2023-04-02T15:53:57.646Z,6.47
2023-04-02T15:56:42.966Z,6.41
2023-04-02T15:59:44.171Z,6.37
2023-04-02T16:02:40.947Z,6.37
2023-04-02T16:05:30.433Z,6.38
2023-04-02T16:08:33.596Z,6.39
2023-04-02T16:11:18.080Z,6.37
2023-04-02T16:13:54.764Z,6.37
2023-04-02T16:16:33.262Z,6.35
2023-04-02T16:19:17.190Z,6.33
2023-04-02T16:21:59.918Z,6.30
2023-04-02T16:24:34.960Z,6.31
2023-04-02T16:27:24.007Z,6.31
2023-04-02T16:30:25.775Z,6.29
2023-04-02T16:33:15.961Z,6.30
2023-04-02T16:36:07.489Z,6.24
2023-04-02T16:38:55.460Z,6.19
2023-04-02T16:41:44.099Z,6.15
2023-04-02T16:44:32.209Z,6.11
2023-04-02T16:47:24.348Z,6.14
2023-04-02T16:50:04.754Z,6.19
2023-04-02T16:52:52.670Z,6.22
2023-04-02T16:55:41.735Z,6.22
2023-04-02T16:58:35.862Z,6.22
2023-04-02T17:01:21.714Z,6.19
2023-04-02T17:04:26.824Z,6.18
2023-04-02T17:07:10.877Z,6.18
2023-04-02T17:09:54.874Z,6.18
2023-04-02T17:12:44.360Z,6.22
2023-04-02T17:15:28.256Z,6.23
2023-04-02T17:18:14.513Z,6.23
2023-04-02T17:20:51.895Z,6.23
2023-04-02T17:23:31.103Z,6.21
2023-04-02T17:26:13.043Z,6.20
2023-04-02T17:28:51.965Z,6.19
2023-04-02T17:31:35.243Z,6.21
2023-04-02T17:34:18.989Z,6.23
2023-04-02T17:37:07.941Z,6.25
2023-04-02T17:39:49.736Z,6.28
2023-04-02T17:42:36.034Z,6.29
2023-04-02T17:45:22.228Z,6.30
2023-04-02T17:48:07.246Z,6.30
2023-04-02T17:51:05.484Z,6.32
2023-04-02T17:54:05.443Z,6.35
2023-04-02T17:57:11.814Z,6.40
2023-04-02T18:00:03.946Z,6.42
2023-04-02T18:03:21.433Z,6.43
2023-04-02T18:06:02.517Z,6.43
2023-04-02T18:08:48.257Z,6.39
2023-04-02T18:11:40.337Z,6.38
2023-04-02T18:14:46.851Z,6.42
2023-04-02T18:17:31.799Z,6.45
2023-04-02T18:20:27.448Z,6.47
2023-04-02T18:23:10.746Z,6.48
2023-04-02T18:26:05.060Z,6.49
2023-04-02T18:28:58.366Z,6.48
2023-04-02T18:31:49.835Z,6.49
2023-04-02T18:34:56.281Z,6.49
2023-04-02T18:37:42.336Z,6.50
2023-04-02T18:40:35.441Z,6.51
2023-04-02T18:43:27.032Z,6.52
2023-04-02T18:46:09.660Z,6.51
2023-04-02T18:48:59.584Z,6.51
2023-04-02T18:51:43.874Z,6.50
2023-04-02T18:54:30.393Z,6.49
2023-04-02T18:57:16.528Z,6.52
2023-04-02T18:59:58.506Z,6.55
2023-04-02T19:02:50.562Z,6.57
2023-04-02T19:05:35.851Z,6.58
2023-04-02T19:08:19.514Z,6.58
2023-04-02T19:11:01.988Z,6.58
2023-04-02T19:13:42.681Z,6.58
2023-04-02T19:16:38.798Z,6.59
2023-04-02T19:19:22.124Z,6.58
2023-04-02T19:22:27.431Z,6.59
2023-04-02T19:25:33.500Z,6.56
2023-04-02T19:28:23.753Z,6.56
2023-04-02T19:31:20.830Z,6.54
2023-04-02T19:34:07.102Z,6.50
2023-04-02T19:36:58.978Z,6.50
2023-04-02T19:40:12.315Z,6.49
2023-04-02T19:42:55.856Z,6.47
2023-04-02T19:45:42.670Z,6.49
2023-04-02T19:48:23.752Z,6.49
2023-04-02T19:51:00.530Z,6.48
2023-04-02T19:53:36.761Z,6.48
2023-04-02T19:56:15.291Z,6.48
2023-04-02T19:58:52.851Z,6.48
2023-04-02T20:01:45.000Z,6.50
2023-04-02T20:04:22.490Z,6.52
2023-04-02T20:07:01.672Z,6.51
2023-04-02T20:09:38.625Z,6.51
2023-04-02T20:12:26.478Z,6.50
2023-04-02T20:15:36.678Z,6.48
2023-04-02T20:18:22.225Z,6.46
2023-04-02T20:21:45.785Z,6.45
2023-04-02T20:24:31.424Z,6.45
2023-04-02T20:27:13.945Z,6.45
2023-04-02T20:29:53.126Z,6.45
2023-04-02T20:32:30.751Z,6.44
2023-04-02T20:35:06.290Z,6.44
2023-04-02T20:37:43.290Z,6.43
2023-04-02T20:40:18.188Z,6.41
2023-04-02T20:42:53.836Z,6.40
2023-04-02T20:45:30.014Z,6.40
2023-04-02T20:48:03.850Z,6.40
2023-04-02T20:50:38.970Z,6.39
2023-04-02T20:53:12.971Z,6.39
2023-04-02T20:55:47.393Z,6.38
2023-04-02T20:58:22.012Z,6.36
2023-04-02T21:00:55.715Z,6.35
2023-04-02T21:03:29.726Z,6.35
2023-04-02T21:06:03.838Z,6.35
2023-04-02T21:08:37.693Z,6.33
2023-04-02T21:11:11.821Z,6.33
2023-04-02T21:13:45.790Z,6.31
2023-04-02T21:16:21.397Z,6.29
2023-04-02T21:18:56.625Z,6.26
2023-04-02T21:21:31.389Z,6.22
2023-04-02T21:24:07.293Z,6.22
2023-04-02T21:26:42.339Z,6.22
2023-04-02T21:29:16.595Z,6.21
2023-04-02T21:31:50.705Z,6.20
2023-04-02T21:34:24.818Z,6.16
2023-04-02T21:36:58.411Z,6.12
2023-04-02T21:39:32.270Z,6.08
2023-04-02T21:42:06.744Z,6.05
2023-04-02T21:44:40.640Z,6.00
2023-04-02T21:47:18.532Z,5.95
2023-04-02T21:49:52.232Z,5.91
2023-04-02T21:52:25.777Z,5.89
2023-04-02T21:54:59.459Z,5.88
2023-04-02T21:57:33.164Z,5.89
2023-04-02T22:00:12.649Z,5.88
2023-04-02T22:02:46.394Z,5.87
2023-04-02T22:05:20.417Z,5.83
2023-04-02T22:07:54.108Z,5.80
2023-04-02T22:10:27.921Z,5.76
2023-04-02T22:13:01.646Z,5.70
2023-04-02T22:15:36.582Z,5.65
2023-04-02T22:18:10.818Z,5.61
2023-04-02T22:20:44.942Z,5.57
2023-04-02T22:23:19.488Z,5.55
2023-04-02T22:25:53.906Z,5.53
2023-04-02T22:28:27.937Z,5.51
2023-04-02T22:31:08.618Z,5.47
2023-04-02T22:33:43.232Z,5.43
2023-04-02T22:36:18.976Z,5.36
2023-04-02T22:38:52.872Z,5.33
2023-04-02T22:41:28.409Z,5.28
2023-04-02T22:44:02.892Z,5.24
2023-04-02T22:46:37.425Z,5.21
2023-04-02T22:49:12.164Z,5.17
2023-04-02T22:52:07.322Z,5.10
2023-04-02T22:54:41.428Z,5.06
2023-04-02T22:57:15.093Z,5.04
2023-04-02T22:59:48.567Z,5.02
2023-04-02T23:02:22.947Z,5.01
2023-04-02T23:04:57.422Z,5.01
2023-04-02T23:07:31.751Z,4.97
2023-04-02T23:10:05.903Z,4.91
2023-04-02T23:12:39.639Z,4.86
2023-04-02T23:15:14.696Z,4.83
2023-04-02T23:17:51.776Z,4.81
2023-04-02T23:20:25.870Z,4.76
2023-04-02T23:22:59.796Z,4.72
2023-04-02T23:25:33.311Z,4.68
2023-04-02T23:28:08.065Z,4.63
2023-04-02T23:30:42.930Z,4.58
2023-04-02T23:33:16.610Z,4.53
2023-04-02T23:36:00.267Z,4.47
2023-04-02T23:38:34.270Z,4.42
2023-04-02T23:41:29.664Z,4.38
2023-04-02T23:44:03.962Z,4.34
2023-04-02T23:46:41.860Z,4.32
2023-04-02T23:49:16.127Z,4.30
2023-04-02T23:51:49.832Z,4.28
2023-04-02T23:54:23.810Z,4.25
2023-04-02T23:57:17.961Z,4.20
2023-04-02T23:59:51.566Z,4.15
